createdAt,value
2019-03-28T00:05:32.024Z,11.20
2019-03-28T00:11:38.651Z,12.03
2019-03-28T00:17:45.211Z,11.00
2019-03-28T00:24:12.058Z,10.27
2019-03-28T00:30:19.841Z,10.67
2019-03-28T00:36:26.469Z,10.27
2019-03-28T00:42:33.061Z,11.00
2019-03-28T00:48:39.595Z,11.53
2019-03-28T00:54:46.238Z,12.47
2019-03-28T01:00:52.864Z,12.80
2019-03-28T01:06:59.409Z,12.90
2019-03-28T01:13:05.994Z,13.10
2019-03-28T01:19:12.515Z,12.30
2019-03-28T01:25:19.032Z,12.30
2019-03-28T01:31:25.535Z,12.43
2019-03-28T01:37:32.055Z,12.50
2019-03-28T01:43:38.567Z,13.20
2019-03-28T01:49:45.100Z,11.97
2019-03-28T01:55:51.630Z,12.77
2019-03-28T02:01:58.159Z,13.37
2019-03-28T02:08:04.697Z,13.67
2019-03-28T02:14:11.314Z,14.20
2019-03-28T02:20:18.226Z,13.77
2019-03-28T02:26:24.890Z,13.90
2019-03-28T02:32:31.428Z,13.37
2019-03-28T02:38:37.973Z,13.13
2019-03-28T02:44:44.512Z,13.80
2019-03-28T02:50:51.122Z,14.13
2019-03-28T02:56:57.684Z,16.30
2019-03-28T03:03:04.194Z,13.50
2019-03-28T03:09:11.898Z,12.13
2019-03-28T03:15:18.596Z,13.27
2019-03-28T03:21:25.615Z,13.17
2019-03-28T03:27:32.112Z,13.40
2019-03-28T03:33:38.646Z,13.73
2019-03-28T03:39:45.209Z,13.10
2019-03-28T03:45:51.771Z,12.80
2019-03-28T03:51:58.359Z,13.73
2019-03-28T03:58:15.502Z,13.30
2019-03-28T04:04:13.159Z,12.87
2019-03-28T04:10:19.736Z,13.43
2019-03-28T04:16:26.264Z,13.57
2019-03-28T04:22:32.777Z,13.70
2019-03-28T04:28:39.414Z,13.30
2019-03-28T04:34:46.124Z,13.77
2019-03-28T04:40:52.763Z,14.00
2019-03-28T04:46:59.275Z,13.20
2019-03-28T04:53:05.803Z,14.27
2019-03-28T04:59:12.338Z,14.23
2019-03-28T05:05:18.879Z,13.87
2019-03-28T05:11:25.659Z,13.57
2019-03-28T05:17:32.333Z,14.60
2019-03-28T05:23:38.904Z,14.00
2019-03-28T05:29:45.481Z,14.53
2019-03-28T05:35:52.355Z,14.30
2019-03-28T05:41:59.079Z,14.27
2019-03-28T05:48:05.592Z,14.47
2019-03-28T05:54:13.898Z,14.30
2019-03-28T06:00:20.576Z,14.07
2019-03-28T06:06:27.191Z,14.00
2019-03-28T06:12:34.127Z,13.97
2019-03-28T06:18:40.698Z,13.20
2019-03-28T06:24:47.366Z,13.53
2019-03-28T06:30:55.940Z,14.30
2019-03-28T06:37:02.819Z,14.10
2019-03-28T06:43:09.359Z,14.57
2019-03-28T06:49:15.982Z,14.27
2019-03-28T06:55:24.018Z,13.70
2019-03-28T07:01:30.843Z,13.93
2019-03-28T07:07:37.567Z,14.83
2019-03-28T07:13:44.195Z,13.80
2019-03-28T07:19:50.830Z,13.93
2019-03-28T07:25:57.459Z,13.57
2019-03-28T07:32:06.320Z,13.57
2019-03-28T07:38:12.946Z,13.67
2019-03-28T07:44:19.637Z,14.23
2019-03-28T07:50:26.153Z,13.60
2019-03-28T07:56:32.723Z,13.70
2019-03-28T08:02:39.245Z,13.57
2019-03-28T08:08:45.822Z,13.00
2019-03-28T08:14:52.474Z,13.60
2019-03-28T08:20:59.044Z,13.80
2019-03-28T08:27:05.703Z,12.90
2019-03-28T08:33:12.507Z,12.87
2019-03-28T08:39:19.580Z,12.77
2019-03-28T08:45:26.135Z,12.57
2019-03-28T08:51:33.112Z,13.73
2019-03-28T08:57:39.736Z,13.97
2019-03-28T09:03:49.612Z,14.87
2019-03-28T09:09:54.808Z,15.83
2019-03-28T09:16:01.390Z,17.23
2019-03-28T09:22:07.926Z,17.73
2019-03-28T09:28:14.591Z,19.07
2019-03-28T09:34:21.201Z,17.67
2019-03-28T09:40:27.788Z,19.07
2019-03-28T09:46:34.582Z,17.43
2019-03-28T09:52:41.305Z,19.83
2019-03-28T09:58:48.104Z,19.90
2019-03-28T10:04:54.731Z,19.17
2019-03-28T10:11:01.451Z,21.43
2019-03-28T10:17:07.978Z,22.43
2019-03-28T10:23:14.940Z,22.00
2019-03-28T10:29:21.551Z,21.37
2019-03-28T10:35:31.142Z,22.00
2019-03-28T10:41:39.831Z,22.13
2019-03-28T10:47:46.224Z,25.27
2019-03-28T10:53:52.811Z,25.17
2019-03-28T10:59:59.410Z,28.00
2019-03-28T11:06:06.518Z,25.27
2019-03-28T11:12:13.231Z,27.57
2019-03-28T11:18:19.864Z,27.30
2019-03-28T11:24:26.387Z,28.57
2019-03-28T11:30:32.954Z,27.73
2019-03-28T11:36:39.513Z,17.47
2019-03-28T11:42:46.087Z,21.37
2019-03-28T11:48:52.671Z,19.37
2019-03-28T11:54:59.274Z,17.67
2019-03-28T12:01:06.150Z,18.63
2019-03-28T12:07:12.860Z,17.63
2019-03-28T12:13:19.434Z,12.97
2019-03-28T12:19:26.113Z,15.30
2019-03-28T12:25:32.951Z,14.73
2019-03-28T12:31:39.555Z,18.57
2019-03-28T12:37:46.104Z,14.27
2019-03-28T12:43:52.687Z,14.00
2019-03-28T12:49:59.297Z,15.80
2019-03-28T12:56:05.985Z,14.73
2019-03-28T13:02:26.941Z,14.67
2019-03-28T13:08:22.640Z,15.27
2019-03-28T13:14:31.295Z,14.33
2019-03-28T13:20:37.645Z,15.07
2019-03-28T13:26:44.225Z,15.90
2019-03-28T13:32:50.847Z,16.40
2019-03-28T13:38:57.394Z,17.53
2019-03-28T13:45:04.330Z,16.27
2019-03-28T13:51:10.873Z,17.33
2019-03-28T13:57:17.614Z,17.47
2019-03-28T14:03:24.233Z,16.60
2019-03-28T14:09:31.023Z,16.23
2019-03-28T14:15:37.893Z,16.80
2019-03-28T14:21:44.455Z,15.60
2019-03-28T14:27:51.031Z,16.53
2019-03-28T14:33:57.587Z,16.70
2019-03-28T14:40:04.260Z,22.13
2019-03-28T14:46:10.973Z,25.87
2019-03-28T14:52:17.649Z,25.43
2019-03-28T14:58:25.769Z,24.37
2019-03-28T15:04:32.434Z,23.83
2019-03-28T15:10:39.061Z,22.83
2019-03-28T15:16:45.638Z,23.30
2019-03-28T15:22:52.259Z,23.33
2019-03-28T15:28:58.940Z,21.80
2019-03-28T15:35:05.696Z,23.23
2019-03-28T15:41:12.263Z,22.63
2019-03-28T15:47:18.818Z,22.57
2019-03-28T15:53:25.439Z,23.13
2019-03-28T15:59:32.106Z,22.50
2019-03-28T16:05:39.024Z,23.83
2019-03-28T16:11:45.805Z,24.30
2019-03-28T16:17:52.613Z,24.80
2019-03-28T16:23:59.244Z,23.20
2019-03-28T16:30:06.996Z,24.13
2019-03-28T16:36:13.637Z,27.53
2019-03-28T16:42:20.290Z,27.53
2019-03-28T16:48:26.963Z,39.87
2019-03-28T16:54:33.644Z,26.93
2019-03-28T17:00:41.126Z,18.60
2019-03-28T17:06:48.280Z,16.70
2019-03-28T17:12:54.999Z,15.40
2019-03-28T17:19:01.630Z,16.20
2019-03-28T17:25:08.782Z,16.10
2019-03-28T17:31:15.425Z,16.07
2019-03-28T17:37:22.083Z,44.43
2019-03-28T17:43:28.930Z,18.03
2019-03-28T17:49:35.795Z,19.13
2019-03-28T17:55:42.459Z,16.70
2019-03-28T18:01:49.116Z,18.80
2019-03-28T18:07:55.720Z,19.53
2019-03-28T18:14:02.358Z,18.17
2019-03-28T18:20:11.701Z,18.10
2019-03-28T18:26:18.366Z,19.60
2019-03-28T18:32:25.140Z,18.00
2019-03-28T18:38:32.074Z,23.10
2019-03-28T18:44:38.753Z,21.10
2019-03-28T18:50:45.519Z,25.67
2019-03-28T18:56:52.178Z,31.40
2019-03-28T19:02:58.801Z,33.23
2019-03-28T19:09:07.367Z,36.23
2019-03-28T19:15:14.205Z,32.27
2019-03-28T19:21:20.800Z,35.00
2019-03-28T19:27:30.082Z,38.13
2019-03-28T19:33:38.194Z,31.53
2019-03-28T19:39:44.288Z,34.30
2019-03-28T19:45:50.881Z,35.47
2019-03-28T19:51:57.527Z,35.37
2019-03-28T19:58:05.007Z,35.97
2019-03-28T20:04:11.956Z,37.60
2019-03-28T20:10:18.972Z,34.43
2019-03-28T20:16:25.972Z,36.37
2019-03-28T20:22:32.749Z,38.90
2019-03-28T20:28:39.714Z,38.77
2019-03-28T20:34:48.944Z,41.83
2019-03-28T20:40:54.739Z,39.07
2019-03-28T20:47:01.496Z,43.17
2019-03-28T20:53:08.744Z,41.53
2019-03-28T20:59:15.374Z,42.00
2019-03-28T21:05:21.965Z,40.90
2019-03-28T21:11:29.576Z,40.87
2019-03-28T21:17:36.255Z,43.03
2019-03-28T21:23:42.864Z,42.53
2019-03-28T21:29:51.038Z,43.37
2019-03-28T21:35:57.918Z,46.30
2019-03-28T21:42:07.077Z,44.73
2019-03-28T21:48:12.970Z,45.33
2019-03-28T21:54:19.628Z,45.97
2019-03-28T22:00:26.439Z,45.93
2019-03-28T22:06:42.932Z,45.60
2019-03-28T22:12:41.728Z,46.40
2019-03-28T22:18:48.489Z,48.33
2019-03-28T22:24:55.183Z,45.13
2019-03-28T22:31:01.777Z,44.13
2019-03-28T22:37:08.357Z,46.60
2019-03-28T22:43:15.069Z,47.10
2019-03-28T22:49:21.707Z,44.10
2019-03-28T22:55:28.266Z,47.07
2019-03-28T23:01:34.861Z,47.00
2019-03-28T23:07:41.504Z,47.77
2019-03-28T23:13:48.293Z,45.30
2019-03-28T23:19:54.833Z,45.00
2019-03-28T23:26:01.534Z,42.80
2019-03-28T23:32:08.211Z,44.17
2019-03-28T23:38:14.822Z,44.80
2019-03-28T23:44:21.566Z,42.20
2019-03-28T23:50:28.336Z,43.70
2019-03-28T23:56:34.920Z,42.60
